Nvo.santanina — EA2910 — position and weather

sailwx.info

Track history (hours):
 
Tides and Currents Weather Stations Pressure Air Temp Water Temp Dewpoint Dewpoint Depression Visibility Wind Speed Wind Dir Waves Ship Positions

Nvo.santanina

Last reported at 2018-Jun-06 12:08 UTC. Time now 2018-Jun-19 23:47 UTC.
Position N 43°33' W 005°42'.
Warning: this ship's position is 13 days out of date.

Length 26 m.

Type: Fishing. MMSI: 224137770.

Date/timePositionNaut miles runAvg speedWind from/ knotsBaromVisibWave heightAir tempDewpointWater temp
2018-Jun-06 12:08N 43°33' W 005°42'0 0.0
2018-Jun-06 11:50N 43°33' W 005°42'1 2.6
2018-Jun-06 11:28N 43°34' W 005°41'1 0.0
2018-Jun-04 16:38N 43°33' W 005°42'0 0.2
2018-Jun-04 16:29N 43°33' W 005°42'0 0.0
2018-Jun-04 15:55N 43°33' W 005°42'0 0.0
2018-Jun-04 15:29N 43°33' W 005°42'1 2.3
2018-Jun-04 15:00N 43°34' W 005°41'0 0.0
2018-Jun-04 06:54N 43°34' W 005°41'  
2018-May-31 10:57N 43°34' W 005°41'1 0.0
2018-May-30 17:18N 43°33' W 005°42'0 0.6
2018-May-30 16:57N 43°33' W 005°42'0 0.0
2018-May-30 16:30N 43°33' W 005°42'0 0.0
2018-May-30 15:51N 43°33' W 005°42'0 0.0
2018-May-30 12:28N 43°33' W 005°42'2 4.3
2018-May-30 11:58N 43°34' W 005°39'108 2.3
2018-May-28 13:01N 43°36' W 003°09'0 8.9
2018-May-28 12:59N 43°36' W 003°09'5 9.1
2018-May-28 12:28N 43°36' W 003°03'4 9.1
2018-May-28 12:00N 43°35' W 002°57'4 7.6
2018-May-28 11:31N 43°35' W 002°52'0 0.9
2018-May-28 11:01N 43°35' W 002°51'0 0.3
2018-May-28 10:30N 43°35' W 002°51'1 2.1
2018-May-28 10:01N 43°36' W 002°50'6 8.0
2018-May-28 09:15N 43°30' W 002°53'2 9.5
2018-May-28 09:00N 43°30' W 002°56'7 9.1
2018-May-28 08:13N 43°30' W 003°06'2 8.9
2018-May-28 07:59N 43°29' W 003°09'5 9.1
2018-May-28 07:28N 43°29' W 003°15'4 9.1
2018-May-28 06:59N 43°29' W 003°21'  
Track history (hours):
 
Tides and Currents Weather Stations Pressure Air Temp Water Temp Dewpoint Dewpoint Depression Visibility Wind Speed Wind Dir Waves Ship Positions

Nvo.santanina

Last reported at 2018-Jun-06 12:08 UTC. Time now 2018-Jun-19 23:47 UTC.
Position N 43°33' W 005°42'.
Warning: this ship's position is 13 days out of date.

Length 26 m.

Type: Fishing. MMSI: 224137770.

Date/timePositionNaut miles runAvg speedWind from/ knotsBaromVisibWave heightAir tempDewpointWater temp
2018-Jun-06 12:08N 43°33' W 005°42'0 0.0
2018-Jun-06 11:50N 43°33' W 005°42'1 2.6
2018-Jun-06 11:28N 43°34' W 005°41'1 0.0
2018-Jun-04 16:38N 43°33' W 005°42'0 0.2
2018-Jun-04 16:29N 43°33' W 005°42'0 0.0
2018-Jun-04 15:55N 43°33' W 005°42'0 0.0
2018-Jun-04 15:29N 43°33' W 005°42'1 2.3
2018-Jun-04 15:00N 43°34' W 005°41'0 0.0
2018-Jun-04 06:54N 43°34' W 005°41'  
2018-May-31 10:57N 43°34' W 005°41'1 0.0
2018-May-30 17:18N 43°33' W 005°42'0 0.6
2018-May-30 16:57N 43°33' W 005°42'0 0.0
2018-May-30 16:30N 43°33' W 005°42'0 0.0
2018-May-30 15:51N 43°33' W 005°42'0 0.0
2018-May-30 12:28N 43°33' W 005°42'2 4.3
2018-May-30 11:58N 43°34' W 005°39'108 2.3
2018-May-28 13:01N 43°36' W 003°09'0 8.9
2018-May-28 12:59N 43°36' W 003°09'5 9.1
2018-May-28 12:28N 43°36' W 003°03'4 9.1
2018-May-28 12:00N 43°35' W 002°57'4 7.6
2018-May-28 11:31N 43°35' W 002°52'0 0.9
2018-May-28 11:01N 43°35' W 002°51'0 0.3
2018-May-28 10:30N 43°35' W 002°51'1 2.1
2018-May-28 10:01N 43°36' W 002°50'6 8.0
2018-May-28 09:15N 43°30' W 002°53'2 9.5
2018-May-28 09:00N 43°30' W 002°56'7 9.1
2018-May-28 08:13N 43°30' W 003°06'2 8.9
2018-May-28 07:59N 43°29' W 003°09'5 9.1
2018-May-28 07:28N 43°29' W 003°15'4 9.1
2018-May-28 06:59N 43°29' W 003°21'  

Dump ship's entire track history